createdAt,value
2024-02-29T00:00:39.428Z,3.75
2024-02-29T00:01:43.898Z,3.75
2024-02-29T00:02:46.374Z,3.76
2024-02-29T00:03:48.731Z,3.77
2024-02-29T00:04:52.271Z,3.77
2024-02-29T00:05:54.740Z,3.75
2024-02-29T00:06:57.075Z,3.74
2024-02-29T00:07:59.253Z,3.71
2024-02-29T00:09:01.556Z,3.70
2024-02-29T00:10:04.757Z,3.68
2024-02-29T00:11:07.349Z,3.69
2024-02-29T00:12:09.751Z,3.69
2024-02-29T00:13:12.231Z,3.68
2024-02-29T00:14:14.805Z,3.70
2024-02-29T00:15:17.056Z,3.70
2024-02-29T00:16:19.526Z,3.69
2024-02-29T00:17:21.773Z,3.70
2024-02-29T00:18:24.061Z,3.68
2024-02-29T00:19:26.927Z,3.66
2024-02-29T00:20:29.484Z,3.64
2024-02-29T00:21:32.249Z,3.65
2024-02-29T00:22:34.462Z,3.62
2024-02-29T00:23:37.629Z,3.58
2024-02-29T00:24:40.088Z,3.56
2024-02-29T00:25:42.445Z,3.51
2024-02-29T00:26:45.051Z,3.49
2024-02-29T00:27:47.270Z,3.43
2024-02-29T00:28:49.752Z,3.38
2024-02-29T00:29:52.138Z,3.35
2024-02-29T00:30:54.613Z,3.35
2024-02-29T00:31:56.848Z,3.32
2024-02-29T00:32:59.362Z,3.31
2024-02-29T00:34:01.745Z,3.28
2024-02-29T00:35:04.569Z,3.26
2024-02-29T00:36:10.056Z,3.26
2024-02-29T00:37:11.692Z,3.23
2024-02-29T00:38:14.005Z,3.24
2024-02-29T00:39:16.325Z,3.24
2024-02-29T00:40:19.258Z,3.24
2024-02-29T00:41:21.718Z,3.25
2024-02-29T00:42:23.953Z,3.27
2024-02-29T00:43:26.711Z,3.28
2024-02-29T00:44:28.972Z,3.27
2024-02-29T00:45:31.124Z,3.26
2024-02-29T00:46:33.471Z,3.27
2024-02-29T00:47:35.658Z,3.28
2024-02-29T00:48:38.173Z,3.27
2024-02-29T00:49:40.189Z,3.31
2024-02-29T00:50:42.835Z,3.34
2024-02-29T00:51:45.212Z,3.37
2024-02-29T00:52:47.552Z,3.39
2024-02-29T00:53:49.913Z,3.42
2024-02-29T00:54:52.382Z,3.39
2024-02-29T00:55:54.704Z,3.43
2024-02-29T00:56:57.234Z,3.43
2024-02-29T00:57:59.628Z,3.40
2024-02-29T00:59:01.853Z,3.41
2024-02-29T01:00:06.358Z,3.42
2024-02-29T01:01:08.892Z,3.41
2024-02-29T01:02:11.093Z,3.38
2024-02-29T01:03:13.333Z,3.37
2024-02-29T01:04:17.534Z,3.35
2024-02-29T01:05:20.164Z,3.33
2024-02-29T01:06:22.488Z,3.35
2024-02-29T01:07:24.875Z,3.35
2024-02-29T01:08:27.225Z,3.35
2024-02-29T01:09:32.200Z,3.36
2024-02-29T01:10:34.738Z,3.35
2024-02-29T01:11:37.573Z,3.35
2024-02-29T01:12:40.985Z,3.35
2024-02-29T01:13:43.332Z,3.34
2024-02-29T01:14:45.585Z,3.32
2024-02-29T01:15:48.148Z,3.29
2024-02-29T01:16:50.571Z,3.30
2024-02-29T01:17:52.954Z,3.29
2024-02-29T01:18:55.383Z,3.29
2024-02-29T01:19:57.770Z,3.29
2024-02-29T01:21:00.253Z,3.29
2024-02-29T01:22:02.622Z,3.26
2024-02-29T01:23:04.722Z,3.25
2024-02-29T01:24:07.196Z,3.23
2024-02-29T01:25:09.666Z,3.24
2024-02-29T01:26:12.513Z,3.23
2024-02-29T01:27:14.869Z,3.24
2024-02-29T01:28:17.160Z,3.23
2024-02-29T01:29:19.494Z,3.19
2024-02-29T01:30:21.841Z,3.16
2024-02-29T01:31:24.182Z,3.16
2024-02-29T01:32:28.678Z,3.15
2024-02-29T01:33:30.843Z,3.17
2024-02-29T01:34:33.308Z,3.16
2024-02-29T01:35:35.778Z,3.13
2024-02-29T01:36:38.576Z,3.10
2024-02-29T01:37:42.233Z,3.08
2024-02-29T01:38:44.504Z,3.09
2024-02-29T01:39:47.012Z,3.07
2024-02-29T01:40:49.444Z,3.05
2024-02-29T01:41:51.864Z,3.03
2024-02-29T01:42:54.220Z,3.03
2024-02-29T01:43:56.736Z,3.03
2024-02-29T01:44:59.119Z,3.02
2024-02-29T01:46:12.863Z,3.03
2024-02-29T01:47:15.373Z,3.04
2024-02-29T01:48:19.742Z,3.03
2024-02-29T01:49:25.711Z,3.03
2024-02-29T01:50:29.105Z,3.04
2024-02-29T01:51:32.107Z,3.04
2024-02-29T01:52:37.608Z,3.04
2024-02-29T01:53:40.211Z,3.07
2024-02-29T01:54:43.387Z,3.10
2024-02-29T01:55:45.729Z,3.12
2024-02-29T01:56:48.467Z,3.11
2024-02-29T01:57:50.880Z,3.11
2024-02-29T01:58:56.216Z,3.10
2024-02-29T01:59:58.652Z,3.09
2024-02-29T02:01:02.144Z,3.09
2024-02-29T02:02:05.272Z,3.11
2024-02-29T02:03:07.721Z,3.10
2024-02-29T02:04:10.149Z,3.08
2024-02-29T02:05:12.499Z,3.09
2024-02-29T02:06:14.812Z,3.10
2024-02-29T02:07:17.190Z,3.12
2024-02-29T02:08:19.482Z,3.12
2024-02-29T02:09:21.741Z,3.11
2024-02-29T02:10:24.203Z,3.11
2024-02-29T02:11:26.705Z,3.12
2024-02-29T02:12:29.304Z,3.14
2024-02-29T02:13:31.449Z,3.15
2024-02-29T02:14:33.809Z,3.16
2024-02-29T02:15:36.084Z,3.19
2024-02-29T02:16:38.607Z,3.18
2024-02-29T02:17:42.543Z,3.19
2024-02-29T02:18:45.007Z,3.18
2024-02-29T02:19:47.565Z,3.19
2024-02-29T02:20:50.160Z,3.19
2024-02-29T02:21:52.626Z,3.23
2024-02-29T02:22:55.563Z,3.24
2024-02-29T02:23:57.749Z,3.25
2024-02-29T02:25:00.002Z,3.25
2024-02-29T02:26:02.486Z,3.27
2024-02-29T02:27:05.032Z,3.27
2024-02-29T02:28:07.557Z,3.26
2024-02-29T02:29:10.094Z,3.26
2024-02-29T02:30:12.886Z,3.28
2024-02-29T02:31:15.259Z,3.31
2024-02-29T02:32:17.615Z,3.30
2024-02-29T02:33:20.629Z,3.30
2024-02-29T02:34:23.074Z,3.30
2024-02-29T02:35:25.331Z,3.29
2024-02-29T02:36:27.810Z,3.29
2024-02-29T02:37:33.804Z,3.30
2024-02-29T02:38:36.211Z,3.30
2024-02-29T02:39:38.834Z,3.32
2024-02-29T02:40:41.205Z,3.34
2024-02-29T02:41:43.688Z,3.31
2024-02-29T02:42:46.055Z,3.33
2024-02-29T02:43:48.742Z,3.29
2024-02-29T02:44:51.143Z,3.24
2024-02-29T02:45:53.380Z,3.21
2024-02-29T02:46:56.404Z,3.21
2024-02-29T02:47:58.673Z,3.22
2024-02-29T02:49:00.992Z,3.19
2024-02-29T02:50:03.898Z,3.20
2024-02-29T02:51:06.164Z,3.20
2024-02-29T02:52:09.064Z,3.21
2024-02-29T02:53:11.406Z,3.21
2024-02-29T02:54:13.794Z,3.20
2024-02-29T02:55:16.254Z,3.19
2024-02-29T02:56:18.636Z,3.19
2024-02-29T02:57:21.023Z,3.19
2024-02-29T02:58:23.154Z,3.17
2024-02-29T02:59:25.653Z,3.17
2024-02-29T03:00:28.092Z,3.14
2024-02-29T03:01:31.518Z,3.11
2024-02-29T03:02:33.885Z,3.08
2024-02-29T03:03:36.070Z,3.07
2024-02-29T03:04:38.456Z,3.04
2024-02-29T03:05:40.822Z,3.02
2024-02-29T03:06:43.291Z,3.02
2024-02-29T03:07:45.657Z,3.03
2024-02-29T03:08:48.028Z,3.03
2024-02-29T03:09:50.296Z,3.03
2024-02-29T03:10:52.820Z,3.06
2024-02-29T03:11:55.155Z,3.08
2024-02-29T03:12:57.456Z,3.07
2024-02-29T03:13:59.788Z,3.06
2024-02-29T03:15:02.052Z,3.06
2024-02-29T03:16:05.016Z,3.05
2024-02-29T03:17:07.233Z,3.00
2024-02-29T03:18:09.499Z,3.03
2024-02-29T03:19:11.924Z,3.02
2024-02-29T03:20:14.086Z,3.04
2024-02-29T03:21:16.497Z,3.04
2024-02-29T03:22:18.915Z,3.03
2024-02-29T03:23:21.297Z,2.98
2024-02-29T03:24:23.601Z,2.92
2024-02-29T03:25:27.770Z,2.92
2024-02-29T03:26:30.443Z,2.91
2024-02-29T03:27:32.694Z,2.92
2024-02-29T03:28:34.944Z,2.90
2024-02-29T03:29:37.382Z,2.88
2024-02-29T03:30:39.841Z,2.88
2024-02-29T03:31:45.316Z,2.86
2024-02-29T03:32:47.747Z,2.86
2024-02-29T03:33:50.124Z,2.86
2024-02-29T03:34:52.608Z,2.85
2024-02-29T03:35:54.967Z,2.81
2024-02-29T03:36:57.789Z,2.79
2024-02-29T03:38:00.108Z,2.76
2024-02-29T03:39:02.522Z,2.76
2024-02-29T03:40:06.596Z,2.76
2024-02-29T03:41:09.013Z,2.76
2024-02-29T03:42:11.527Z,2.78
2024-02-29T03:43:14.019Z,2.78
2024-02-29T03:44:16.341Z,2.76
2024-02-29T03:45:18.429Z,2.77
2024-02-29T03:46:20.918Z,2.77
2024-02-29T03:47:23.186Z,2.75
2024-02-29T03:48:25.550Z,2.75
2024-02-29T03:49:27.895Z,2.75
2024-02-29T03:50:30.364Z,2.75
2024-02-29T03:51:33.844Z,2.71
2024-02-29T03:52:36.300Z,2.70
2024-02-29T03:53:38.754Z,2.67
2024-02-29T03:54:41.055Z,2.65
2024-02-29T03:55:43.208Z,2.65
2024-02-29T03:56:45.836Z,2.65
2024-02-29T03:57:48.147Z,2.66
2024-02-29T03:58:50.435Z,2.65
2024-02-29T03:59:52.695Z,2.67
2024-02-29T04:00:55.297Z,2.64
2024-02-29T04:01:57.565Z,2.62
2024-02-29T04:03:00.127Z,2.60
2024-02-29T04:04:02.438Z,2.59
2024-02-29T04:05:06.792Z,2.59
2024-02-29T04:06:09.711Z,2.57
2024-02-29T04:07:12.107Z,2.58
2024-02-29T04:08:14.521Z,2.56
2024-02-29T04:09:16.759Z,2.57
2024-02-29T04:10:19.347Z,2.58
2024-02-29T04:11:21.640Z,2.61
2024-02-29T04:12:23.802Z,2.63
2024-02-29T04:13:26.268Z,2.61
2024-02-29T04:14:28.609Z,2.59
2024-02-29T04:15:30.992Z,2.54
2024-02-29T04:16:37.108Z,2.54
2024-02-29T04:17:39.553Z,2.54
2024-02-29T04:18:42.011Z,2.52
2024-02-29T04:19:44.213Z,2.52
2024-02-29T04:20:46.644Z,2.53
2024-02-29T04:21:49.045Z,2.52
2024-02-29T04:22:51.365Z,2.53
2024-02-29T04:23:53.675Z,2.55
2024-02-29T04:24:55.969Z,2.56
2024-02-29T04:25:58.276Z,2.56
2024-02-29T04:27:00.717Z,2.57
2024-02-29T04:28:03.809Z,2.56
2024-02-29T04:29:06.237Z,2.55
2024-02-29T04:30:10.008Z,2.54
2024-02-29T04:31:12.395Z,2.57
2024-02-29T04:32:14.816Z,2.59
2024-02-29T04:33:17.115Z,2.61
2024-02-29T04:34:19.512Z,2.62
2024-02-29T04:35:21.831Z,2.65
2024-02-29T04:36:24.089Z,2.63
2024-02-29T04:37:26.427Z,2.64
2024-02-29T04:38:28.627Z,2.65
2024-02-29T04:39:31.036Z,2.63
2024-02-29T04:40:33.455Z,2.60
2024-02-29T04:41:35.659Z,2.57
2024-02-29T04:42:38.939Z,2.50
2024-02-29T04:43:41.111Z,2.46
2024-02-29T04:44:43.456Z,2.43
2024-02-29T04:45:45.646Z,2.42
2024-02-29T04:46:47.956Z,2.41
2024-02-29T04:47:51.455Z,2.40
2024-02-29T04:48:53.757Z,2.42
2024-02-29T04:49:56.184Z,2.42
2024-02-29T04:50:58.457Z,2.42
2024-02-29T04:52:00.740Z,2.45
2024-02-29T04:53:03.203Z,2.43
2024-02-29T04:54:05.675Z,2.43
2024-02-29T04:55:08.999Z,2.45
2024-02-29T04:56:11.473Z,2.47
2024-02-29T04:57:13.714Z,2.49
2024-02-29T04:58:16.020Z,2.51
2024-02-29T04:59:18.364Z,2.47
2024-02-29T05:00:20.875Z,2.48
2024-02-29T05:01:23.443Z,2.46
2024-02-29T05:02:26.023Z,2.43
2024-02-29T05:03:28.352Z,2.43
2024-02-29T05:04:30.734Z,2.40
2024-02-29T05:05:33.017Z,2.41
2024-02-29T05:06:35.592Z,2.39
2024-02-29T05:07:37.792Z,2.35
2024-02-29T05:08:40.236Z,2.35
2024-02-29T05:09:42.704Z,2.35
2024-02-29T05:10:45.073Z,2.35
2024-02-29T05:11:47.415Z,2.32
2024-02-29T05:12:50.061Z,2.33
2024-02-29T05:13:52.737Z,2.34
2024-02-29T05:14:55.125Z,2.34
2024-02-29T05:15:57.480Z,2.35
2024-02-29T05:17:00.193Z,2.34
2024-02-29T05:18:03.192Z,2.33
2024-02-29T05:19:05.523Z,2.32
2024-02-29T05:20:08.705Z,2.31
2024-02-29T05:21:11.116Z,2.28
2024-02-29T05:22:13.399Z,2.28
2024-02-29T05:23:15.692Z,2.28
2024-02-29T05:24:18.587Z,2.27
2024-02-29T05:25:22.856Z,2.29
2024-02-29T05:26:25.331Z,2.32
2024-02-29T05:27:27.498Z,2.34
2024-02-29T05:28:29.905Z,2.34
2024-02-29T05:29:32.260Z,2.35
2024-02-29T05:30:34.817Z,2.36
2024-02-29T05:31:38.016Z,2.36
2024-02-29T05:32:40.454Z,2.37
2024-02-29T05:33:42.901Z,2.39
2024-02-29T05:34:46.165Z,2.43
2024-02-29T05:35:48.573Z,2.44
2024-02-29T05:36:51.105Z,2.46
2024-02-29T05:37:54.678Z,2.48
2024-02-29T05:38:57.586Z,2.50
2024-02-29T05:39:59.812Z,2.51
2024-02-29T05:41:03.524Z,2.51
2024-02-29T05:42:06.284Z,2.49
2024-02-29T05:43:08.625Z,2.49
2024-02-29T05:44:11.096Z,2.48
2024-02-29T05:45:13.368Z,2.47
2024-02-29T05:46:15.983Z,2.48
2024-02-29T05:47:18.499Z,2.50
2024-02-29T05:48:20.874Z,2.53
2024-02-29T05:49:23.612Z,2.56
2024-02-29T05:50:26.413Z,2.58
2024-02-29T05:51:28.727Z,2.58
2024-02-29T05:52:31.141Z,2.60
2024-02-29T05:53:33.648Z,2.63
2024-02-29T05:54:36.513Z,2.65
2024-02-29T05:55:41.564Z,2.70
2024-02-29T05:56:44.134Z,2.71
2024-02-29T05:57:46.726Z,2.68
2024-02-29T05:58:49.280Z,2.69
2024-02-29T05:59:51.724Z,2.70
2024-02-29T06:00:54.682Z,2.75
2024-02-29T06:01:57.278Z,2.78
2024-02-29T06:03:00.208Z,2.81
2024-02-29T06:04:02.896Z,2.83
2024-02-29T06:05:05.604Z,2.83
2024-02-29T06:06:08.390Z,2.85
2024-02-29T06:07:10.641Z,2.85
2024-02-29T06:08:16.295Z,2.85
2024-02-29T06:09:17.572Z,2.86
2024-02-29T06:10:20.320Z,2.87
2024-02-29T06:11:22.757Z,2.91
2024-02-29T06:12:25.021Z,2.93
2024-02-29T06:13:27.483Z,2.98
2024-02-29T06:14:29.675Z,2.98
2024-02-29T06:15:32.174Z,2.99
2024-02-29T06:16:34.550Z,3.03
2024-02-29T06:17:37.788Z,3.04
2024-02-29T06:18:40.505Z,3.05
2024-02-29T06:19:42.941Z,3.04
2024-02-29T06:20:45.363Z,3.06
2024-02-29T06:21:47.858Z,3.08
2024-02-29T06:22:50.493Z,3.08
2024-02-29T06:23:52.850Z,3.08
2024-02-29T06:24:55.244Z,3.08
2024-02-29T06:25:57.533Z,3.09
2024-02-29T06:27:00.019Z,3.09
2024-02-29T06:28:03.079Z,3.12
2024-02-29T06:29:05.867Z,3.13
2024-02-29T06:30:09.872Z,3.13
2024-02-29T06:31:12.656Z,3.09
2024-02-29T06:32:15.348Z,3.10
2024-02-29T06:33:17.699Z,3.11
2024-02-29T06:34:20.179Z,3.14
2024-02-29T06:35:22.707Z,3.16
2024-02-29T06:36:25.447Z,3.16
2024-02-29T06:37:27.948Z,3.17
2024-02-29T06:38:30.568Z,3.21
2024-02-29T06:39:33.711Z,3.24
2024-02-29T06:40:36.454Z,3.25
2024-02-29T06:41:41.900Z,3.25
2024-02-29T06:42:44.323Z,3.30
2024-02-29T06:43:46.713Z,3.33
2024-02-29T06:44:50.972Z,3.34
2024-02-29T06:45:53.336Z,3.38
2024-02-29T06:46:56.169Z,3.41
2024-02-29T06:47:58.750Z,3.46
2024-02-29T06:49:02.156Z,3.50
2024-02-29T06:50:06.627Z,3.54
2024-02-29T06:51:09.462Z,3.57
2024-02-29T06:52:12.473Z,3.58
2024-02-29T06:53:15.154Z,3.62
2024-02-29T06:54:18.105Z,3.66
2024-02-29T06:55:22.488Z,3.71
2024-02-29T06:56:24.981Z,3.75
2024-02-29T06:57:27.492Z,3.79
2024-02-29T06:58:29.755Z,3.83
2024-02-29T06:59:32.530Z,3.88
2024-02-29T07:00:35.164Z,3.93
2024-02-29T07:01:38.052Z,3.97
2024-02-29T07:02:41.014Z,4.02
2024-02-29T07:03:43.431Z,4.06
2024-02-29T07:04:45.797Z,4.10
2024-02-29T07:05:48.264Z,4.13
2024-02-29T07:06:50.777Z,4.15
2024-02-29T07:07:53.106Z,4.19
2024-02-29T07:08:55.490Z,4.24
2024-02-29T07:09:58.029Z,4.26
2024-02-29T07:11:02.520Z,4.27
2024-02-29T07:12:05.953Z,4.27
2024-02-29T07:13:08.790Z,4.29
2024-02-29T07:14:11.458Z,4.32
2024-02-29T07:15:13.986Z,4.34
2024-02-29T07:16:16.422Z,4.36
2024-02-29T07:17:19.120Z,4.40
2024-02-29T07:18:21.559Z,4.42
2024-02-29T07:19:24.035Z,4.44
2024-02-29T07:20:28.814Z,4.46
2024-02-29T07:21:31.363Z,4.47
2024-02-29T07:22:33.836Z,4.49
2024-02-29T07:23:36.196Z,4.51
2024-02-29T07:24:38.833Z,4.55
2024-02-29T07:25:41.120Z,4.54
2024-02-29T07:26:43.679Z,4.53
2024-02-29T07:27:46.141Z,4.52
2024-02-29T07:28:48.678Z,4.50
2024-02-29T07:29:51.464Z,4.52
2024-02-29T07:30:53.829Z,4.53
2024-02-29T07:31:56.542Z,4.57
2024-02-29T07:32:59.273Z,4.57
2024-02-29T07:34:01.927Z,4.60
2024-02-29T07:35:04.618Z,4.65
2024-02-29T07:36:10.078Z,4.69
2024-02-29T07:37:12.725Z,4.71
2024-02-29T07:38:15.542Z,4.76
2024-02-29T07:39:18.060Z,4.80
2024-02-29T07:40:20.866Z,4.85
2024-02-29T07:41:56.092Z,5.06
2024-02-29T07:42:58.717Z,4.98
2024-02-29T07:44:01.283Z,5.04
2024-02-29T07:45:04.007Z,5.10
2024-02-29T07:46:06.837Z,5.16
2024-02-29T07:47:09.503Z,5.17
2024-02-29T07:48:12.235Z,5.23
2024-02-29T07:49:14.736Z,5.29
2024-02-29T07:50:17.648Z,5.33
2024-02-29T07:51:20.239Z,5.35
2024-02-29T07:52:22.635Z,5.37
2024-02-29T07:53:25.308Z,5.42
2024-02-29T07:54:29.047Z,5.48
2024-02-29T07:55:33.771Z,5.53
2024-02-29T07:56:41.166Z,5.61
2024-02-29T07:57:44.137Z,5.67
2024-02-29T07:58:47.461Z,5.74
2024-02-29T07:59:50.502Z,5.81
2024-02-29T08:00:53.547Z,5.86
2024-02-29T08:01:56.370Z,5.90
2024-02-29T08:03:55.864Z,6.13
2024-02-29T08:04:58.619Z,6.06
2024-02-29T08:06:05.473Z,6.12
2024-02-29T08:07:08.178Z,6.16
2024-02-29T08:08:10.917Z,6.17
2024-02-29T08:09:13.744Z,6.15
2024-02-29T08:10:20.251Z,6.17
2024-02-29T08:11:22.978Z,6.22
2024-02-29T08:12:25.666Z,6.28
2024-02-29T08:13:27.842Z,6.31
2024-02-29T08:14:31.093Z,6.36
2024-02-29T08:15:33.639Z,6.42
2024-02-29T08:16:36.228Z,6.48
2024-02-29T08:17:38.702Z,6.52
2024-02-29T08:18:41.125Z,6.56
2024-02-29T08:19:43.799Z,6.60
2024-02-29T08:20:46.526Z,6.66
2024-02-29T08:21:49.026Z,6.72
2024-02-29T08:22:52.337Z,6.74
2024-02-29T08:23:54.884Z,6.77
2024-02-29T08:24:57.613Z,6.78
2024-02-29T08:26:00.136Z,6.80
2024-02-29T08:27:02.379Z,6.83
2024-02-29T08:28:05.513Z,6.85
2024-02-29T08:29:08.117Z,6.89
2024-02-29T08:30:13.408Z,6.89
2024-02-29T08:31:16.131Z,6.89
2024-02-29T08:32:18.512Z,6.90
2024-02-29T08:33:20.792Z,6.94
2024-02-29T08:34:23.240Z,6.98
2024-02-29T08:35:25.693Z,7.04
2024-02-29T08:36:28.279Z,7.12
2024-02-29T08:37:30.682Z,7.16
2024-02-29T08:38:33.300Z,7.19
2024-02-29T08:39:35.959Z,7.20
2024-02-29T08:40:38.659Z,7.23
2024-02-29T08:41:41.041Z,7.27
2024-02-29T08:42:43.354Z,7.32
2024-02-29T08:43:45.575Z,7.36
2024-02-29T08:44:48.506Z,7.38
2024-02-29T08:45:50.983Z,7.40
2024-02-29T08:46:54.983Z,7.42
2024-02-29T08:47:57.512Z,7.45
2024-02-29T08:49:03.548Z,7.52
2024-02-29T08:50:05.354Z,7.56
2024-02-29T08:51:07.737Z,7.60
2024-02-29T08:52:10.171Z,7.65
2024-02-29T08:53:12.485Z,7.69
2024-02-29T08:54:14.691Z,7.70
2024-02-29T08:55:18.002Z,7.71
2024-02-29T08:56:20.627Z,7.73
2024-02-29T08:57:23.045Z,7.76
2024-02-29T08:58:25.332Z,7.76
2024-02-29T08:59:27.638Z,7.77
2024-02-29T09:00:30.059Z,7.80
2024-02-29T09:01:33.944Z,7.81
2024-02-29T09:02:36.236Z,7.84
2024-02-29T09:03:38.663Z,7.90
2024-02-29T09:04:40.952Z,7.96
2024-02-29T09:05:43.270Z,7.98
2024-02-29T09:06:45.916Z,8.00
2024-02-29T09:07:50.155Z,8.01
2024-02-29T09:08:52.522Z,8.02
2024-02-29T09:09:54.863Z,8.04
2024-02-29T09:10:57.515Z,8.08
2024-02-29T09:12:00.189Z,8.11
2024-02-29T09:13:11.732Z,8.11
2024-02-29T09:14:08.018Z,8.18
2024-02-29T09:15:10.419Z,8.23
2024-02-29T09:16:13.189Z,8.28
2024-02-29T09:17:17.102Z,8.33
2024-02-29T09:18:19.316Z,8.40
2024-02-29T09:19:21.808Z,8.44
2024-02-29T09:20:24.250Z,8.44
2024-02-29T09:21:26.659Z,8.46
2024-02-29T09:22:31.097Z,8.48
2024-02-29T09:23:33.914Z,8.50
2024-02-29T09:24:36.249Z,8.52
2024-02-29T09:25:38.589Z,8.56
2024-02-29T09:26:41.061Z,8.63
2024-02-29T09:27:44.306Z,8.65
2024-02-29T09:28:46.732Z,8.72
2024-02-29T09:29:49.063Z,8.79
2024-02-29T09:30:51.912Z,8.83
2024-02-29T09:31:54.398Z,8.90
2024-02-29T09:32:56.861Z,8.94
2024-02-29T09:33:59.406Z,8.99
2024-02-29T09:35:01.688Z,9.02
2024-02-29T09:36:11.604Z,9.03
2024-02-29T09:37:14.006Z,9.03
2024-02-29T09:38:16.283Z,9.02
2024-02-29T09:39:18.659Z,9.04
2024-02-29T09:40:21.016Z,9.04
2024-02-29T09:41:33.073Z,9.07
2024-02-29T09:42:28.226Z,9.11
2024-02-29T09:43:31.254Z,9.13
2024-02-29T09:44:34.095Z,9.16
2024-02-29T09:45:38.036Z,9.22
2024-02-29T09:46:42.185Z,9.27
2024-02-29T09:47:44.632Z,9.28
2024-02-29T09:48:48.377Z,9.31
2024-02-29T09:49:56.669Z,9.35
2024-02-29T09:50:57.924Z,9.35
2024-02-29T09:52:01.376Z,9.38
2024-02-29T09:53:05.510Z,9.39
2024-02-29T09:54:11.679Z,9.42
2024-02-29T09:55:17.278Z,9.41
2024-02-29T09:56:24.842Z,9.39
2024-02-29T09:57:27.363Z,9.42
2024-02-29T09:58:30.081Z,9.41
2024-02-29T09:59:35.011Z,9.43
2024-02-29T10:00:38.219Z,9.43
2024-02-29T10:01:41.382Z,9.45
2024-02-29T10:02:44.329Z,9.41
2024-02-29T10:03:48.817Z,9.46
2024-02-29T10:04:51.363Z,9.47
2024-02-29T10:05:55.176Z,9.52
2024-02-29T10:06:57.919Z,9.58
2024-02-29T10:08:04.276Z,9.65
2024-02-29T10:09:08.039Z,9.70
2024-02-29T10:11:28.863Z,9.97
2024-02-29T10:12:33.704Z,9.86
2024-02-29T10:13:40.148Z,9.92
2024-02-29T10:14:44.603Z,9.97
2024-02-29T10:15:51.149Z,10.03
2024-02-29T10:16:55.553Z,10.06
2024-02-29T10:18:00.142Z,10.10
2024-02-29T10:19:03.979Z,10.16
2024-02-29T10:20:10.230Z,10.15
2024-02-29T10:21:13.384Z,10.14
2024-02-29T10:22:20.615Z,10.15
2024-02-29T10:23:24.532Z,10.16
2024-02-29T10:24:26.933Z,10.17
2024-02-29T10:25:33.030Z,10.19
2024-02-29T10:26:35.944Z,10.20
2024-02-29T10:27:38.811Z,10.24
2024-02-29T10:28:42.249Z,10.27
2024-02-29T10:29:45.127Z,10.33
2024-02-29T10:30:51.257Z,10.38
2024-02-29T10:31:57.277Z,10.44
2024-02-29T10:32:59.861Z,10.46
2024-02-29T10:34:02.358Z,10.51
2024-02-29T10:35:20.869Z,10.58
2024-02-29T10:36:23.993Z,10.60
2024-02-29T10:37:26.687Z,10.62
2024-02-29T10:38:29.467Z,10.66
2024-02-29T10:39:32.811Z,10.67
2024-02-29T10:40:36.401Z,10.69
2024-02-29T10:41:39.149Z,10.71
2024-02-29T10:42:42.424Z,10.72
2024-02-29T10:43:45.087Z,10.76
2024-02-29T10:44:49.488Z,10.83
2024-02-29T10:45:53.367Z,10.89
2024-02-29T10:46:56.406Z,10.95
2024-02-29T10:48:17.938Z,11.01
2024-02-29T10:50:59.726Z,11.13
2024-02-29T10:52:10.115Z,11.00
2024-02-29T10:54:39.388Z,11.21
2024-02-29T10:56:57.569Z,11.21
2024-02-29T10:59:20.550Z,11.27
2024-02-29T11:00:24.145Z,11.17
2024-02-29T11:01:26.680Z,11.19
2024-02-29T11:02:29.604Z,11.24
2024-02-29T11:03:32.293Z,11.28
2024-02-29T11:04:34.883Z,11.37
2024-02-29T11:05:37.667Z,11.41
2024-02-29T11:06:42.365Z,11.44
2024-02-29T11:07:45.572Z,11.44
2024-02-29T11:08:48.678Z,11.38
2024-02-29T11:09:52.079Z,11.35
2024-02-29T11:10:56.161Z,11.41
2024-02-29T11:12:13.242Z,11.44
2024-02-29T11:13:19.492Z,11.45
2024-02-29T11:14:25.607Z,11.50
2024-02-29T11:15:28.386Z,11.54
2024-02-29T11:17:46.669Z,11.72
2024-02-29T11:18:49.456Z,11.59
2024-02-29T11:19:58.623Z,11.57
2024-02-29T11:22:14.319Z,11.64
2024-02-29T11:23:19.119Z,11.52
2024-02-29T11:24:22.039Z,11.56
2024-02-29T11:25:29.645Z,11.56
2024-02-29T11:27:51.352Z,11.61
2024-02-29T11:28:54.003Z,11.46
2024-02-29T11:30:01.245Z,11.47
2024-02-29T11:31:17.989Z,11.47
2024-02-29T11:32:26.735Z,11.46
2024-02-29T11:33:32.877Z,11.46
2024-02-29T11:34:35.429Z,11.45
2024-02-29T11:35:38.080Z,11.41
2024-02-29T11:36:40.921Z,11.26
2024-02-29T11:37:44.431Z,11.18
2024-02-29T11:38:47.628Z,11.07
2024-02-29T11:39:50.392Z,11.00
2024-02-29T11:40:53.229Z,10.97
2024-02-29T11:42:03.894Z,10.92
2024-02-29T11:43:06.546Z,10.89
2024-02-29T11:44:09.053Z,10.90
2024-02-29T11:45:21.375Z,10.88
2024-02-29T11:46:24.246Z,10.85
2024-02-29T11:47:26.810Z,10.86
2024-02-29T11:48:29.790Z,10.89
2024-02-29T11:49:32.211Z,10.90
2024-02-29T11:50:34.918Z,10.95
2024-02-29T11:51:37.602Z,10.97
2024-02-29T11:52:40.098Z,11.00
2024-02-29T11:53:43.149Z,11.03
2024-02-29T11:54:45.805Z,11.04
2024-02-29T11:55:56.217Z,11.10
2024-02-29T11:56:53.224Z,11.09
2024-02-29T11:57:56.142Z,11.12
2024-02-29T11:59:03.746Z,11.15
2024-02-29T12:00:10.178Z,11.18
2024-02-29T12:01:13.955Z,11.22
2024-02-29T12:02:16.730Z,11.26
2024-02-29T12:03:19.016Z,11.28
2024-02-29T12:04:22.001Z,11.29
2024-02-29T12:05:24.541Z,11.33
2024-02-29T12:06:27.310Z,11.34
2024-02-29T12:07:29.953Z,11.37
2024-02-29T12:08:32.999Z,11.40
2024-02-29T12:09:35.868Z,11.40
2024-02-29T12:10:44.665Z,11.43
2024-02-29T12:11:48.576Z,11.47
2024-02-29T12:12:52.210Z,11.47
2024-02-29T12:13:59.112Z,11.47
2024-02-29T12:15:08.534Z,11.48
2024-02-29T12:16:18.006Z,11.51
2024-02-29T12:17:22.544Z,11.54
2024-02-29T12:18:25.199Z,11.56
2024-02-29T12:19:28.229Z,11.60
2024-02-29T12:20:31.267Z,11.67
2024-02-29T12:21:34.844Z,11.70
2024-02-29T12:22:39.320Z,11.74
2024-02-29T12:23:41.894Z,11.77
2024-02-29T12:24:45.644Z,11.77
2024-02-29T12:25:48.107Z,11.78
2024-02-29T12:26:51.289Z,11.80
2024-02-29T12:27:54.936Z,11.78
2024-02-29T12:28:59.520Z,11.73
2024-02-29T12:30:04.064Z,11.65
2024-02-29T12:31:08.935Z,11.54
2024-02-29T12:32:13.042Z,11.49
2024-02-29T12:33:19.736Z,11.38
2024-02-29T12:34:23.482Z,11.34
2024-02-29T12:35:29.512Z,11.32
2024-02-29T12:36:35.216Z,11.31
2024-02-29T12:37:43.688Z,11.33
2024-02-29T12:38:51.201Z,11.38
2024-02-29T12:40:02.163Z,11.39
2024-02-29T12:41:07.306Z,11.40
2024-02-29T12:42:09.873Z,11.43
2024-02-29T12:43:15.521Z,11.45
2024-02-29T12:44:18.191Z,11.44
2024-02-29T12:45:21.795Z,11.43
2024-02-29T12:46:25.623Z,11.46
2024-02-29T12:47:28.809Z,11.47
2024-02-29T12:48:31.330Z,11.47
2024-02-29T12:49:34.134Z,11.49
2024-02-29T12:50:37.763Z,11.51
2024-02-29T12:51:40.184Z,11.54
2024-02-29T12:52:43.706Z,11.54
2024-02-29T12:53:46.738Z,11.57
2024-02-29T12:54:49.478Z,11.55
2024-02-29T12:55:52.708Z,11.51
2024-02-29T12:56:55.536Z,11.47
2024-02-29T12:57:58.673Z,11.45
2024-02-29T12:59:03.734Z,11.45
2024-02-29T13:00:11.911Z,11.42
2024-02-29T13:01:18.058Z,11.40
2024-02-29T13:02:22.654Z,11.35
2024-02-29T13:03:29.901Z,11.28
2024-02-29T13:04:34.289Z,11.22
2024-02-29T13:05:36.882Z,11.19
2024-02-29T13:06:39.604Z,11.15
2024-02-29T13:07:42.583Z,11.17
2024-02-29T13:08:44.935Z,11.19
2024-02-29T13:09:47.492Z,11.20
2024-02-29T13:10:50.211Z,11.23
2024-02-29T13:11:52.742Z,11.24
2024-02-29T13:13:00.271Z,11.28
2024-02-29T13:13:59.741Z,11.31
2024-02-29T13:15:02.321Z,11.34
2024-02-29T13:16:08.335Z,11.37
2024-02-29T13:17:10.939Z,11.40
2024-02-29T13:18:13.697Z,11.42
2024-02-29T13:19:16.448Z,11.45
2024-02-29T13:20:19.250Z,11.48
2024-02-29T13:21:22.309Z,11.52
2024-02-29T13:22:25.414Z,11.54
2024-02-29T13:23:27.936Z,11.60
2024-02-29T13:24:30.349Z,11.66
2024-02-29T13:25:34.779Z,11.73
2024-02-29T13:26:37.616Z,11.76
2024-02-29T13:27:40.029Z,11.81
2024-02-29T13:28:42.537Z,11.83
2024-02-29T13:29:44.999Z,11.91
2024-02-29T13:30:47.509Z,11.93
2024-02-29T13:31:50.056Z,11.91
2024-02-29T13:32:52.512Z,11.89
2024-02-29T13:33:54.874Z,11.85
2024-02-29T13:34:57.395Z,11.80
2024-02-29T13:35:59.990Z,11.75
2024-02-29T13:37:02.541Z,11.74
2024-02-29T13:38:05.155Z,11.75
2024-02-29T13:39:07.413Z,11.75
2024-02-29T13:40:10.241Z,11.72
2024-02-29T13:41:12.746Z,11.66
2024-02-29T13:42:17.110Z,11.65
2024-02-29T13:43:21.505Z,11.65
2024-02-29T13:44:24.633Z,11.60
2024-02-29T13:45:32.412Z,11.55
2024-02-29T13:46:35.184Z,11.54
2024-02-29T13:48:53.110Z,11.66
2024-02-29T13:49:55.486Z,11.57
2024-02-29T13:50:58.661Z,11.63
2024-02-29T13:52:01.306Z,11.70
2024-02-29T13:53:04.223Z,11.74
2024-02-29T13:54:06.803Z,11.78
2024-02-29T13:55:12.389Z,11.84
2024-02-29T13:56:15.279Z,11.91
2024-02-29T13:57:17.753Z,11.97
2024-02-29T13:58:20.169Z,12.07
2024-02-29T13:59:22.722Z,12.18
2024-02-29T14:00:25.346Z,12.27
2024-02-29T14:01:28.001Z,12.39
2024-02-29T14:02:30.511Z,12.46
2024-02-29T14:03:32.792Z,12.60
2024-02-29T14:04:35.223Z,12.66
2024-02-29T14:05:37.674Z,12.73
2024-02-29T14:06:40.252Z,12.84